createdAt,value
2023-03-25T00:00:18.216Z,97813.66
2023-03-25T00:03:04.440Z,97804.56
2023-03-25T00:05:51.249Z,97804.56
2023-03-25T00:08:37.411Z,97797.44
2023-03-25T00:11:23.435Z,97800.22
2023-03-25T00:14:09.016Z,97805.00
2023-03-25T00:16:54.757Z,97796.69
2023-03-25T00:19:41.494Z,97798.22
2023-03-25T00:22:27.294Z,97791.56
2023-03-25T00:25:20.376Z,97786.31
2023-03-25T00:28:05.603Z,97780.75
2023-03-25T00:30:52.606Z,97779.22
2023-03-25T00:33:37.780Z,97785.56
2023-03-25T00:36:22.903Z,97773.69
2023-03-25T00:39:08.616Z,97776.47
2023-03-25T00:41:54.460Z,97778.44
2023-03-25T00:44:40.608Z,97790.34
2023-03-25T00:47:27.148Z,97784.78
2023-03-25T00:50:13.247Z,97793.13
2023-03-25T00:52:58.334Z,97801.47
2023-03-25T00:55:43.642Z,97795.13
2023-03-25T00:58:29.515Z,97797.13
2023-03-25T01:01:18.335Z,97788.78
2023-03-25T01:04:04.953Z,97785.25
2023-03-25T01:06:53.630Z,97779.69
2023-03-25T01:09:39.738Z,97786.00
2023-03-25T01:12:27.083Z,97776.16
2023-03-25T01:15:12.606Z,97772.13
2023-03-25T01:17:59.412Z,97774.13
2023-03-25T01:20:44.849Z,97772.88
2023-03-25T01:23:30.294Z,97766.56
2023-03-25T01:26:16.015Z,97774.13
2023-03-25T01:29:01.684Z,97767.81
2023-03-25T01:31:50.098Z,97763.78
2023-03-25T01:34:38.835Z,97756.22
2023-03-25T01:37:25.709Z,97761.00
2023-03-25T01:40:18.129Z,97745.91
2023-03-25T01:43:03.782Z,97740.78
2023-03-25T01:45:51.974Z,97736.00
2023-03-25T01:48:41.525Z,97722.88
2023-03-25T01:51:33.750Z,97720.09
2023-03-25T01:54:19.977Z,97715.31
2023-03-25T01:57:08.746Z,97711.00
2023-03-25T01:59:55.370Z,97716.53
2023-03-25T02:02:41.365Z,97708.22
2023-03-25T02:05:40.128Z,97707.44
2023-03-25T02:08:26.219Z,97709.78
2023-03-25T02:11:11.989Z,97705.44
2023-03-25T02:14:02.330Z,97705.44
2023-03-25T02:17:15.873Z,97706.69
2023-03-25T02:20:29.347Z,97697.09
2023-03-25T02:23:22.144Z,97694.31
2023-03-25T02:26:29.872Z,97690.00
2023-03-25T02:29:37.065Z,97684.44
2023-03-25T02:32:41.631Z,97675.34
2023-03-25T02:35:54.147Z,97678.13
2023-03-25T02:38:49.700Z,97669.00
2023-03-25T02:41:38.108Z,97667.78
2023-03-25T02:44:56.799Z,97669.78
2023-03-25T02:47:47.489Z,97669.00
2023-03-25T02:50:43.767Z,97679.34
2023-03-25T02:53:34.804Z,97673.78
2023-03-25T02:56:25.567Z,97675.34
2023-03-25T02:59:14.309Z,97674.56
2023-03-25T03:02:04.785Z,97675.34
2023-03-25T03:04:53.440Z,97673.03
2023-03-25T03:07:44.651Z,97668.22
2023-03-25T03:10:55.900Z,97671.00
2023-03-25T03:14:04.676Z,97662.69
2023-03-25T03:17:13.269Z,97662.69
2023-03-25T03:20:21.397Z,97661.91
2023-03-25T03:23:25.042Z,97669.00
2023-03-25T03:26:38.373Z,97669.00
2023-03-25T03:29:34.721Z,97663.91
2023-03-25T03:32:36.672Z,97659.13
2023-03-25T03:35:31.807Z,97661.16
2023-03-25T03:38:21.418Z,97665.44
2023-03-25T03:41:11.628Z,97672.25
2023-03-25T03:44:02.831Z,97667.47
2023-03-25T03:47:00.142Z,97671.47
2023-03-25T03:49:52.415Z,97673.03
2023-03-25T03:52:46.027Z,97677.34
2023-03-25T03:55:44.789Z,97677.03
2023-03-25T03:58:35.033Z,97688.13
2023-03-25T04:01:46.208Z,97691.41
2023-03-25T04:04:34.752Z,97682.25
2023-03-25T04:07:27.897Z,97692.16
2023-03-25T04:10:40.133Z,97686.59
2023-03-25T04:13:30.254Z,97685.03
2023-03-25T04:16:16.751Z,97681.03
2023-03-25T04:19:03.368Z,97692.63
2023-03-25T04:21:49.141Z,97691.81
2023-03-25T04:24:37.866Z,97694.59
2023-03-25T04:27:24.360Z,97689.03
2023-03-25T04:30:11.819Z,97685.50
2023-03-25T04:32:57.612Z,97695.38
2023-03-25T04:35:43.266Z,97694.94
2023-03-25T04:38:29.549Z,97694.50
2023-03-25T04:41:15.872Z,97700.34
2023-03-25T04:44:01.643Z,97706.19
2023-03-25T04:46:47.689Z,97706.06
2023-03-25T04:49:33.282Z,97710.69
2023-03-25T04:52:18.793Z,97708.53
2023-03-25T04:55:05.266Z,97695.25
2023-03-25T04:57:52.460Z,97697.09
2023-03-25T05:00:37.673Z,97701.25
2023-03-25T05:03:24.411Z,97700.50
2023-03-25T05:06:11.390Z,97703.91
2023-03-25T05:08:56.662Z,97695.41
2023-03-25T05:11:43.036Z,97704.06
2023-03-25T05:14:28.490Z,97696.78
2023-03-25T05:17:13.770Z,97699.88
2023-03-25T05:19:59.157Z,97703.75
2023-03-25T05:22:45.856Z,97696.47
2023-03-25T05:25:34.424Z,97689.19
2023-03-25T05:28:19.933Z,97694.31
2023-03-25T05:31:08.515Z,97700.19
2023-03-25T05:33:55.014Z,97695.25
2023-03-25T05:36:40.610Z,97702.31
2023-03-25T05:39:25.959Z,97698.28
2023-03-25T05:42:12.586Z,97722.41
2023-03-25T05:44:58.377Z,97702.47
2023-03-25T05:47:44.317Z,97711.59
2023-03-25T05:50:30.842Z,97710.34
2023-03-25T05:53:16.449Z,97716.97
2023-03-25T05:56:02.313Z,97724.88
2023-03-25T05:58:48.984Z,97719.31
2023-03-25T06:01:34.758Z,97737.06
2023-03-25T06:04:21.875Z,97737.84
2023-03-25T06:07:13.829Z,97742.16
2023-03-25T06:09:59.532Z,97747.72
2023-03-25T06:12:46.612Z,97753.59
2023-03-25T06:15:39.198Z,97756.84
2023-03-25T06:18:25.093Z,97756.09
2023-03-25T06:21:11.626Z,97767.53
2023-03-25T06:23:59.288Z,97778.66
2023-03-25T06:26:44.717Z,97774.59
2023-03-25T06:29:31.054Z,97768.28
2023-03-25T06:32:16.572Z,97777.41
2023-03-25T06:35:03.058Z,97771.81
2023-03-25T06:37:49.963Z,97766.75
2023-03-25T06:40:45.166Z,97758.41
2023-03-25T06:43:32.050Z,97765.97
2023-03-25T06:46:39.508Z,97766.75
2023-03-25T06:49:46.846Z,97768.75
2023-03-25T06:52:32.532Z,97778.66
2023-03-25T06:55:19.482Z,97789.78
2023-03-25T06:58:06.152Z,97793.78
2023-03-25T07:00:54.958Z,97788.06
2023-03-25T07:03:42.584Z,97791.63
2023-03-25T07:06:31.409Z,97787.63
2023-03-25T07:09:17.003Z,97782.84
2023-03-25T07:12:02.477Z,97782.34
2023-03-25T07:14:55.975Z,97778.81
2023-03-25T07:17:43.148Z,97787.00
2023-03-25T07:20:29.058Z,97782.22
2023-03-25T07:23:15.120Z,97778.97
2023-03-25T07:26:00.727Z,97785.31
2023-03-25T07:28:48.047Z,97786.06
2023-03-25T07:31:33.613Z,97789.63
2023-03-25T07:34:19.016Z,97800.28
2023-03-25T07:37:04.402Z,97798.28
2023-03-25T07:39:49.846Z,97796.28
2023-03-25T07:42:37.412Z,97808.63
2023-03-25T07:45:44.133Z,97802.31
2023-03-25T07:48:30.144Z,97812.66
2023-03-25T07:51:16.093Z,97812.19
2023-03-25T07:54:05.258Z,97821.00
2023-03-25T07:56:52.890Z,97814.97
2023-03-25T07:59:38.114Z,97803.06
2023-03-25T08:02:23.810Z,97820.06
2023-03-25T08:05:10.080Z,97822.84
2023-03-25T08:07:55.962Z,97820.84
2023-03-25T08:10:43.732Z,97818.53
2023-03-25T08:13:29.978Z,97808.63
2023-03-25T08:16:16.116Z,97797.97
2023-03-25T08:19:01.406Z,97808.63
2023-03-25T08:21:46.817Z,97815.91
2023-03-25T08:24:32.990Z,97822.22
2023-03-25T08:27:18.707Z,97829.66
2023-03-25T08:30:05.641Z,97837.06
2023-03-25T08:32:55.102Z,97838.16
2023-03-25T08:35:41.046Z,97848.34
2023-03-25T08:38:33.908Z,97857.78
2023-03-25T08:41:21.165Z,97855.31
2023-03-25T08:44:07.258Z,97860.88
2023-03-25T08:46:52.477Z,97869.25
2023-03-25T08:49:37.841Z,97868.44
2023-03-25T08:52:23.128Z,97868.00
2023-03-25T08:55:12.171Z,97859.63
2023-03-25T08:58:02.130Z,97867.22
2023-03-25T09:00:47.893Z,97866.72
2023-03-25T09:03:33.458Z,97864.75
2023-03-25T09:06:20.613Z,97873.88
2023-03-25T09:09:11.582Z,97888.09
2023-03-25T09:11:57.619Z,97882.97
2023-03-25T09:14:43.055Z,97877.72
2023-03-25T09:17:28.758Z,97886.06
2023-03-25T09:20:14.746Z,97875.69
2023-03-25T09:23:00.235Z,97866.59
2023-03-25T09:25:46.386Z,97859.94
2023-03-25T09:28:31.558Z,97851.91
2023-03-25T09:31:16.972Z,97855.59
2023-03-25T09:34:02.263Z,97852.06
2023-03-25T09:36:47.948Z,97845.72
2023-03-25T09:39:33.376Z,97842.63
2023-03-25T09:42:44.959Z,97844.94
2023-03-25T09:45:57.547Z,97840.78
2023-03-25T09:48:47.386Z,97835.22
2023-03-25T09:51:36.599Z,97829.97
2023-03-25T09:54:38.758Z,97824.22
2023-03-25T09:57:44.409Z,97820.97
2023-03-25T10:00:31.087Z,97841.69
2023-03-25T10:03:33.031Z,97829.34
2023-03-25T10:06:21.180Z,97827.31
2023-03-25T10:09:21.204Z,97825.28
2023-03-25T10:12:30.287Z,97827.94
2023-03-25T10:15:27.455Z,97814.78
2023-03-25T10:18:32.993Z,97808.75
2023-03-25T10:21:25.213Z,97817.88
2023-03-25T10:24:18.441Z,97807.03
2023-03-25T10:27:19.182Z,97810.28
2023-03-25T10:30:28.014Z,97804.56
2023-03-25T10:33:28.899Z,97791.88
2023-03-25T10:36:19.265Z,97796.22
2023-03-25T10:39:14.990Z,97790.97
2023-03-25T10:42:12.881Z,97795.75
2023-03-25T10:45:00.188Z,97793.28
2023-03-25T10:47:47.473Z,97794.03
2023-03-25T10:50:32.862Z,97779.63
2023-03-25T10:53:24.332Z,97795.88
2023-03-25T10:56:17.581Z,97791.88
2023-03-25T10:59:58.069Z,97785.81
2023-03-25T11:02:44.354Z,97794.16
2023-03-25T11:05:30.189Z,97797.25
2023-03-25T11:08:24.431Z,97779.78
2023-03-25T11:11:10.883Z,97784.09
2023-03-25T11:13:57.329Z,97781.31
2023-03-25T11:16:57.241Z,97770.19
2023-03-25T11:19:52.007Z,97786.44
2023-03-25T11:22:38.913Z,97792.00
2023-03-25T11:25:29.362Z,97798.03
2023-03-25T11:28:35.633Z,97802.38
2023-03-25T11:31:27.476Z,97807.94
2023-03-25T11:34:13.134Z,97820.59
2023-03-25T11:36:58.812Z,97808.25
2023-03-25T11:39:49.882Z,97792.00
2023-03-25T11:42:49.698Z,97778.84
2023-03-25T11:45:40.220Z,97763.38
2023-03-25T11:48:32.093Z,97763.38
2023-03-25T11:51:25.110Z,97764.91
2023-03-25T11:54:14.376Z,97764.91
2023-03-25T11:56:59.754Z,97753.03
2023-03-25T11:59:47.421Z,97746.69
2023-03-25T12:02:40.803Z,97743.91
2023-03-25T12:05:26.313Z,97742.84
2023-03-25T12:08:16.828Z,97744.38
2023-03-25T12:11:07.319Z,97735.72
2023-03-25T12:14:23.737Z,97727.34
2023-03-25T12:17:33.094Z,97719.19
2023-03-25T12:20:31.759Z,97717.03
2023-03-25T12:23:52.937Z,97721.81
2023-03-25T12:27:26.171Z,97717.03
2023-03-25T12:30:15.176Z,97713.47
2023-03-25T12:33:00.768Z,97713.94
2023-03-25T12:36:06.860Z,97722.59
2023-03-25T12:39:42.820Z,97745.66
2023-03-25T12:42:30.812Z,97790.97
2023-03-25T12:45:28.255Z,97750.59
2023-03-25T12:48:16.814Z,97723.06
2023-03-25T12:51:11.383Z,97727.84
2023-03-25T12:54:41.836Z,97730.34
2023-03-25T12:57:42.423Z,97746.28
2023-03-25T13:00:50.753Z,97748.28
2023-03-25T13:04:08.653Z,97743.47
2023-03-25T13:07:03.192Z,97716.44
2023-03-25T13:10:13.924Z,97708.84
2023-03-25T13:13:09.505Z,97700.31
2023-03-25T13:16:16.283Z,97695.56
2023-03-25T13:19:11.538Z,97690.28
2023-03-25T13:22:02.376Z,97685.00
2023-03-25T13:24:52.877Z,97670.81
2023-03-25T13:27:42.490Z,97662.16
2023-03-25T13:30:38.616Z,97672.69
2023-03-25T13:33:28.419Z,97663.84
2023-03-25T13:36:28.192Z,97665.84
2023-03-25T13:39:22.134Z,97660.28
2023-03-25T13:42:15.726Z,97652.44
2023-03-25T13:45:05.486Z,97656.75
2023-03-25T13:48:12.935Z,97659.97
2023-03-25T13:51:03.334Z,97658.00
2023-03-25T13:54:27.959Z,97650.75
2023-03-25T13:57:29.549Z,97662.66
2023-03-25T14:00:28.862Z,97657.84
2023-03-25T14:03:33.029Z,97663.88
2023-03-25T14:06:39.667Z,97669.13
2023-03-25T14:09:37.742Z,97658.97
2023-03-25T14:12:29.538Z,97652.03
2023-03-25T14:15:27.449Z,97652.31
2023-03-25T14:18:20.149Z,97651.25
2023-03-25T14:21:22.489Z,97646.91
2023-03-25T14:24:17.327Z,97640.59
2023-03-25T14:27:05.822Z,97643.06
2023-03-25T14:30:06.075Z,97665.50
2023-03-25T14:32:52.037Z,97729.19
2023-03-25T14:35:47.361Z,97803.38
2023-03-25T14:38:53.840Z,97793.19
2023-03-25T14:42:00.119Z,97783.28
2023-03-25T14:44:49.935Z,97779.56
2023-03-25T14:47:35.810Z,97762.88
2023-03-25T14:50:21.248Z,97767.38
2023-03-25T14:53:12.440Z,97758.69
2023-03-25T14:56:02.325Z,97753.78
2023-03-25T14:58:53.463Z,97742.50
2023-03-25T15:01:41.079Z,97735.69
2023-03-25T15:04:38.948Z,97722.56
2023-03-25T15:07:46.012Z,97709.22
2023-03-25T15:10:36.605Z,97705.53
2023-03-25T15:13:29.098Z,97689.91
2023-03-25T15:16:28.852Z,97682.63
2023-03-25T15:19:18.937Z,97698.88
2023-03-25T15:22:11.139Z,97687.56
2023-03-25T15:25:00.988Z,97699.47
2023-03-25T15:28:06.344Z,97694.97
2023-03-25T15:31:03.544Z,97694.19
2023-03-25T15:34:08.574Z,97701.63
2023-03-25T15:37:13.935Z,97704.09
2023-03-25T15:40:14.537Z,97696.81
2023-03-25T15:43:29.611Z,97695.28
2023-03-25T15:46:48.448Z,97703.63
2023-03-25T15:49:42.981Z,97702.38
2023-03-25T15:52:55.981Z,97706.22
2023-03-25T15:55:53.651Z,97720.91
2023-03-25T15:58:48.472Z,97732.34
2023-03-25T16:01:39.339Z,97737.16
2023-03-25T16:04:31.068Z,97748.28
2023-03-25T16:07:19.835Z,97721.53
2023-03-25T16:10:16.193Z,97746.56
2023-03-25T16:13:23.374Z,97743.31
2023-03-25T16:16:10.216Z,97749.97
2023-03-25T16:18:56.061Z,97742.06
2023-03-25T16:21:41.866Z,97743.31
2023-03-25T16:24:33.902Z,97744.09
2023-03-25T16:27:31.812Z,97740.53
2023-03-25T16:30:22.930Z,97744.84
2023-03-25T16:33:08.562Z,97741.31
2023-03-25T16:35:59.545Z,97740.38
2023-03-25T16:38:44.708Z,97739.28
2023-03-25T16:41:30.828Z,97739.28
2023-03-25T16:44:20.566Z,97747.34
2023-03-25T16:47:06.585Z,97743.31
2023-03-25T16:49:55.844Z,97748.91
2023-03-25T16:52:42.813Z,97744.56
2023-03-25T16:55:50.846Z,97751.38
2023-03-25T16:58:48.087Z,97746.44
2023-03-25T17:01:42.338Z,97740.88
2023-03-25T17:04:44.382Z,97740.88
2023-03-25T17:07:30.593Z,97748.47
2023-03-25T17:10:23.752Z,97740.88
2023-03-25T17:13:11.504Z,97746.44
2023-03-25T17:15:57.436Z,97737.50
2023-03-25T17:18:43.943Z,97743.06
2023-03-25T17:21:32.789Z,97741.81
2023-03-25T17:24:24.429Z,97743.66
2023-03-25T17:27:25.294Z,97740.41
2023-03-25T17:30:32.229Z,97746.75
2023-03-25T17:33:35.209Z,97749.53
2023-03-25T17:36:21.281Z,97760.97
2023-03-25T17:39:20.682Z,97750.59
2023-03-25T17:42:13.896Z,97752.13
2023-03-25T17:44:59.225Z,97752.44
2023-03-25T17:47:44.979Z,97765.00
2023-03-25T17:50:33.115Z,97755.41
2023-03-25T17:53:19.482Z,97753.84
2023-03-25T17:56:06.079Z,97735.63
2023-03-25T17:58:58.430Z,97753.84
2023-03-25T18:01:46.201Z,97754.94
2023-03-25T18:04:31.501Z,97750.13
2023-03-25T18:07:21.124Z,97756.94
2023-03-25T18:10:16.187Z,97744.56
2023-03-25T18:13:01.599Z,97754.16
2023-03-25T18:15:46.978Z,97756.19
2023-03-25T18:18:32.426Z,97756.19
2023-03-25T18:21:17.816Z,97763.75
2023-03-25T18:24:03.252Z,97773.19
2023-03-25T18:26:48.884Z,97775.16
2023-03-25T18:29:37.455Z,97773.94
2023-03-25T18:32:23.496Z,97784.31
2023-03-25T18:35:09.340Z,97789.41
2023-03-25T18:37:55.538Z,97783.06
2023-03-25T18:40:41.497Z,97779.81
2023-03-25T18:43:27.088Z,97796.06
2023-03-25T18:46:14.338Z,97781.34
2023-03-25T18:49:03.630Z,97781.34
2023-03-25T18:51:50.642Z,97771.78
2023-03-25T18:54:36.294Z,97783.22
2023-03-25T18:57:23.983Z,97779.47
2023-03-25T19:00:31.121Z,97784.28
2023-03-25T19:03:18.259Z,97784.09
2023-03-25T19:06:05.507Z,97771.44
2023-03-25T19:08:52.616Z,97772.50
2023-03-25T19:11:38.041Z,97779.63
2023-03-25T19:14:23.901Z,97772.81
2023-03-25T19:17:10.527Z,97776.38
2023-03-25T19:19:56.623Z,97779.91
2023-03-25T19:22:42.692Z,97783.50
2023-03-25T19:25:29.233Z,97780.72
2023-03-25T19:28:16.960Z,97792.59
2023-03-25T19:31:04.017Z,97793.38
2023-03-25T19:33:53.167Z,97787.81
2023-03-25T19:36:39.287Z,97804.06
2023-03-25T19:39:26.123Z,97817.22
2023-03-25T19:42:12.657Z,97829.41
2023-03-25T19:44:59.023Z,97809.44
2023-03-25T19:47:45.958Z,97840.06
2023-03-25T19:50:34.914Z,97847.19
2023-03-25T19:53:21.282Z,97854.00
2023-03-25T19:56:07.639Z,97870.69
2023-03-25T19:58:53.765Z,97837.28
2023-03-25T20:01:39.689Z,97814.72
2023-03-25T20:04:26.587Z,97808.22
2023-03-25T20:07:12.371Z,97801.09
2023-03-25T20:10:04.360Z,97794.59
2023-03-25T20:12:56.369Z,97791.03
2023-03-25T20:15:42.204Z,97795.34
2023-03-25T20:18:33.271Z,97787.00
2023-03-25T20:21:20.245Z,97782.69
2023-03-25T20:24:07.058Z,97789.03
2023-03-25T20:26:53.235Z,97790.56
2023-03-25T20:29:39.520Z,97800.78
2023-03-25T20:32:37.699Z,97800.47
2023-03-25T20:35:26.202Z,97808.81
2023-03-25T20:38:15.978Z,97811.59
2023-03-25T20:41:02.115Z,97798.44
2023-03-25T20:43:48.348Z,97795.19
2023-03-25T20:46:34.515Z,97782.03
2023-03-25T20:49:22.590Z,97784.06
2023-03-25T20:52:10.130Z,97769.66
2023-03-25T20:54:57.158Z,97766.09
2023-03-25T20:57:43.929Z,97763.00
2023-03-25T21:00:29.872Z,97769.66
2023-03-25T21:03:18.463Z,97759.75
2023-03-25T21:06:13.489Z,97759.31
2023-03-25T21:09:07.683Z,97756.50
2023-03-25T21:11:53.321Z,97754.97
2023-03-25T21:14:38.636Z,97752.19
2023-03-25T21:17:23.995Z,97756.97
2023-03-25T21:20:09.879Z,97771.66
2023-03-25T21:22:57.485Z,97769.34
2023-03-25T21:25:43.339Z,97772.94
2023-03-25T21:28:32.047Z,97765.50
2023-03-25T21:31:21.945Z,97765.19
2023-03-25T21:34:07.127Z,97770.44
2023-03-25T21:36:52.445Z,97763.66
2023-03-25T21:39:37.997Z,97754.22
2023-03-25T21:42:23.310Z,97757.47
2023-03-25T21:45:11.526Z,97757.47
2023-03-25T21:47:57.176Z,97763.06
2023-03-25T21:50:42.332Z,97752.88
2023-03-25T21:53:32.545Z,97754.84
2023-03-25T21:56:20.369Z,97744.22
2023-03-25T21:59:05.931Z,97755.66
2023-03-25T22:01:53.253Z,97756.09
2023-03-25T22:04:39.027Z,97757.38
2023-03-25T22:07:24.635Z,97768.97
2023-03-25T22:10:11.026Z,97764.16
2023-03-25T22:12:57.164Z,97770.50
2023-03-25T22:15:42.772Z,97766.19
2023-03-25T22:18:28.768Z,97762.13
2023-03-25T22:21:17.272Z,97769.56
2023-03-25T22:24:04.076Z,97774.84
2023-03-25T22:26:49.455Z,97769.72
2023-03-25T22:29:35.160Z,97758.13
2023-03-25T22:32:20.993Z,97777.63
2023-03-25T22:35:06.880Z,97766.47
2023-03-25T22:37:55.463Z,97766.94
2023-03-25T22:40:40.865Z,97758.59
2023-03-25T22:43:26.385Z,97765.41
2023-03-25T22:46:12.649Z,97764.16
2023-03-25T22:48:58.126Z,97763.09
2023-03-25T22:51:44.055Z,97764.34
2023-03-25T22:54:29.954Z,97766.81
2023-03-25T22:57:15.844Z,97758.63
2023-03-25T23:00:01.681Z,97753.22
2023-03-25T23:02:47.698Z,97757.72
2023-03-25T23:05:34.828Z,97754.63
2023-03-25T23:08:21.879Z,97755.56
2023-03-25T23:11:16.866Z,97757.28
2023-03-25T23:14:09.798Z,97756.22
2023-03-25T23:16:57.773Z,97748.78
2023-03-25T23:19:43.209Z,97756.81
2023-03-25T23:22:28.750Z,97754.22
2023-03-25T23:25:14.290Z,97744.78
2023-03-25T23:28:02.290Z,97750.06
2023-03-25T23:30:48.118Z,97751.28
2023-03-25T23:33:34.758Z,97760.88
2023-03-25T23:36:20.908Z,97765.38
2023-03-25T23:39:12.418Z,97767.84
2023-03-25T23:41:58.129Z,97764.75
2023-03-25T23:44:43.845Z,97771.22
2023-03-25T23:47:29.522Z,97769.34
2023-03-25T23:50:17.973Z,97776.16
2023-03-25T23:53:03.433Z,97766.75
2023-03-25T23:55:51.855Z,97770.00
2023-03-25T23:58:37.977Z,97777.56
